Time;durP1;ratioP1;P1;durP2;ratioP2;P2;SDS_P1;SDS_P2;PMS_P1;PMS_P2;Temp;Humidity;BMP_temperature;BMP_pressure;BME280_temperature;BME280_humidity;BME280_pressure;Samples;Min_cycle;Max_cycle;Signal;HPM_P1;HPM_P2
2022/04/10 00:00:15;;;;;;;7.03;2.50;;;1.60;99.90;;;;;;5029422;28;20053;-81
2022/04/10 00:02:41;;;;;;;4.10;2.15;;;1.60;99.90;;;;;;5037850;28;20036;-84
2022/04/10 00:05:09;;;;;;;6.40;2.75;;;1.50;99.90;;;;;;5036645;28;20024;-84
2022/04/10 00:07:35;;;;;;;5.18;2.17;;;1.40;99.90;;;;;;5032767;28;20712;-81
2022/04/10 00:10:00;;;;;;;6.00;2.58;;;1.40;99.90;;;;;;5033786;28;20042;-81
2022/04/10 00:12:26;;;;;;;5.70;2.40;;;1.30;99.90;;;;;;5032347;28;20029;-83
2022/04/10 00:14:52;;;;;;;6.38;2.40;;;1.20;99.90;;;;;;5033747;28;20162;-83
2022/04/10 00:17:17;;;;;;;6.32;2.72;;;1.20;99.90;;;;;;5042847;28;20530;-84
2022/04/10 00:19:45;;;;;;;5.47;2.35;;;1.00;99.90;;;;;;5038360;28;20049;-83
2022/04/10 00:22:11;;;;;;;7.22;2.60;;;1.00;99.90;;;;;;5034849;28;20116;-83
2022/04/10 00:24:37;;;;;;;4.65;2.65;;;0.90;99.90;;;;;;5052136;28;20127;-78
2022/04/10 00:27:03;;;;;;;4.50;3.03;;;0.90;99.90;;;;;;5031620;28;20157;-85
2022/04/10 00:29:29;;;;;;;5.85;3.33;;;0.90;99.90;;;;;;5027950;28;20018;-83
2022/04/10 00:31:55;;;;;;;6.70;2.92;;;0.90;99.90;;;;;;5020623;28;20556;-81
2022/04/10 00:34:21;;;;;;;6.28;2.35;;;0.80;99.90;;;;;;5019413;28;20176;-83
2022/04/10 00:36:46;;;;;;;3.70;2.30;;;0.80;99.90;;;;;;5018877;28;20033;-83
2022/04/10 00:39:12;;;;;;;5.03;2.47;;;0.70;99.90;;;;;;5041590;28;20099;-84
2022/04/10 00:41:38;;;;;;;5.32;2.35;;;0.80;99.90;;;;;;5038975;28;20029;-84
2022/04/10 00:44:06;;;;;;;5.82;2.90;;;0.70;99.90;;;;;;5035220;28;20036;-84
2022/04/10 00:46:31;;;;;;;4.70;2.28;;;0.70;99.90;;;;;;5030094;28;20033;-84
2022/04/10 00:48:57;;;;;;;6.55;3.03;;;0.60;99.90;;;;;;5029195;28;20048;-83
2022/04/10 00:51:43;;;;;;;6.82;2.50;;;0.60;99.90;;;;;;5028191;28;20033;-83
2022/04/10 00:54:15;;;;;;;5.45;2.40;;;0.60;99.90;;;;;;5038815;28;20028;-85
2022/04/10 00:56:42;;;;;;;5.97;2.45;;;0.50;99.90;;;;;;5038390;28;20029;-84
2022/04/10 00:59:08;;;;;;;4.95;2.80;;;0.40;99.90;;;;;;5038994;28;20041;-84
2022/04/10 01:01:35;;;;;;;4.40;2.13;;;0.30;99.90;;;;;;5039796;28;20030;-83
2022/04/10 01:04:02;;;;;;;10.02;3.65;;;0.40;99.90;;;;;;5015054;28;20042;-82
2022/04/10 01:06:29;;;;;;;4.80;2.35;;;0.40;99.90;;;;;;5018211;28;20124;-84
2022/04/10 01:08:55;;;;;;;6.35;2.85;;;0.40;99.90;;;;;;5026380;28;20037;-84
2022/04/10 01:11:21;;;;;;;3.78;2.40;;;0.40;99.90;;;;;;5025458;28;20030;-84
2022/04/10 01:13:48;;;;;;;6.10;2.65;;;0.30;99.90;;;;;;5038440;28;20040;-83
2022/04/10 01:16:14;;;;;;;4.03;2.30;;;0.20;99.90;;;;;;5024216;28;20037;-84
2022/04/10 01:18:41;;;;;;;3.85;2.88;;;0.20;99.90;;;;;;5035811;28;20507;-82
2022/04/10 01:21:07;;;;;;;5.47;3.47;;;0.20;99.90;;;;;;5039286;28;20033;-83
2022/04/10 01:23:34;;;;;;;5.10;3.08;;;0.20;99.90;;;;;;5031640;28;20484;-83
2022/04/10 01:25:59;;;;;;;5.40;2.60;;;0.20;99.90;;;;;;5024724;28;20030;-83
2022/04/10 01:28:25;;;;;;;4.60;2.25;;;0.10;99.90;;;;;;5028564;28;20400;-84
2022/04/10 01:30:51;;;;;;;5.53;2.58;;;0.10;99.90;;;;;;5024365;28;20050;-83
2022/04/10 01:33:16;;;;;;;5.95;2.63;;;-0.10;99.90;;;;;;5033735;28;20040;-81
2022/04/10 01:35:42;;;;;;;5.85;2.85;;;-0.10;99.90;;;;;;5034883;28;20033;-82
2022/04/10 01:38:11;;;;;;;4.07;2.53;;;-0.10;99.90;;;;;;5029969;28;20033;-83
2022/04/10 01:40:37;;;;;;;5.35;2.50;;;-0.10;99.90;;;;;;5031150;28;20045;-83
2022/04/10 01:43:03;;;;;;;6.75;2.60;;;-0.10;99.90;;;;;;5027982;28;20030;-84
2022/04/10 01:45:29;;;;;;;4.53;2.63;;;-0.20;99.90;;;;;;5021898;28;20164;-84
2022/04/10 01:47:54;;;;;;;8.07;2.75;;;-0.20;99.90;;;;;;5036099;28;20067;-87
2022/04/10 01:50:20;;;;;;;5.13;2.88;;;-0.20;99.90;;;;;;5028961;28;20096;-85
2022/04/10 01:52:46;;;;;;;4.97;2.72;;;-0.30;99.90;;;;;;5041296;28;20061;-84
2022/04/10 01:55:12;;;;;;;6.53;2.63;;;-0.20;99.90;;;;;;5055592;28;20064;-83
2022/04/10 01:57:37;;;;;;;3.58;2.65;;;-0.20;99.90;;;;;;5040553;28;20121;-86
2022/04/10 02:00:05;;;;;;;5.40;2.05;;;-0.20;99.90;;;;;;5026508;28;20049;-84
2022/04/10 02:02:30;;;;;;;5.15;2.67;;;-0.10;99.90;;;;;;5035207;28;20037;-85
2022/04/10 02:04:56;;;;;;;4.25;2.70;;;-0.20;99.90;;;;;;5036529;28;20397;-85
2022/04/10 02:07:22;;;;;;;5.57;2.60;;;-0.20;99.90;;;;;;5029688;28;20429;-83
2022/04/10 02:09:48;;;;;;;8.15;2.90;;;-0.20;99.90;;;;;;5016861;28;20026;-84
2022/04/10 02:12:13;;;;;;;4.50;2.30;;;-0.20;99.90;;;;;;5035979;28;20047;-83
2022/04/10 02:14:39;;;;;;;5.32;2.78;;;-0.20;99.90;;;;;;5030268;28;20033;-84
2022/04/10 02:17:05;;;;;;;4.88;2.22;;;-0.10;99.90;;;;;;5033514;28;20046;-86
2022/04/10 02:19:31;;;;;;;4.13;2.42;;;-0.10;99.90;;;;;;5047653;28;20065;-85
2022/04/10 02:21:59;;;;;;;5.72;2.53;;;-0.20;99.90;;;;;;5029828;28;20550;-85
2022/04/10 02:24:25;;;;;;;5.28;2.65;;;-0.20;99.90;;;;;;5032627;28;20029;-85
2022/04/10 02:26:51;;;;;;;4.80;2.60;;;-0.20;99.90;;;;;;5019693;28;20196;-83
2022/04/10 02:29:16;;;;;;;4.93;2.70;;;-0.20;99.90;;;;;;5034218;28;20542;-84
2022/04/10 02:31:42;;;;;;;5.95;2.78;;;-0.30;99.90;;;;;;5026756;28;20043;-84
2022/04/10 02:34:08;;;;;;;5.10;2.63;;;-0.40;99.90;;;;;;5034615;28;20052;-84
2022/04/10 02:36:33;;;;;;;6.35;2.88;;;-0.40;99.90;;;;;;5036778;28;20048;-84
2022/04/10 02:38:59;;;;;;;4.78;2.38;;;-0.40;99.90;;;;;;5038546;28;20037;-82
2022/04/10 02:41:25;;;;;;;5.47;3.10;;;-0.30;99.90;;;;;;5030586;28;20038;-83
2022/04/10 02:43:50;;;;;;;5.70;3.13;;;-0.50;99.90;;;;;;5039012;28;21560;-84
2022/04/10 02:46:16;;;;;;;4.72;3.25;;;-0.50;99.90;;;;;;5028876;28;20116;-84
2022/04/10 02:48:42;;;;;;;11.55;3.42;;;-0.60;99.90;;;;;;5026085;28;20026;-83
2022/04/10 02:51:08;;;;;;;5.55;2.92;;;-0.50;99.90;;;;;;5040791;28;20495;-83
2022/04/10 02:53:33;;;;;;;5.15;2.70;;;-0.50;99.90;;;;;;5040151;28;20026;-82
2022/04/10 02:56:00;;;;;;;5.57;2.65;;;-0.60;99.90;;;;;;5041273;28;20033;-84
2022/04/10 02:58:26;;;;;;;6.10;3.00;;;-0.60;99.90;;;;;;5044342;28;20519;-83
2022/04/10 03:00:52;;;;;;;7.65;3.30;;;-0.60;99.90;;;;;;5036559;28;20653;-85
2022/04/10 03:03:17;;;;;;;5.80;3.33;;;-0.50;99.90;;;;;;5032991;28;20041;-83
2022/04/10 03:05:43;;;;;;;10.25;3.85;;;-0.50;99.90;;;;;;5041391;28;20083;-82
2022/04/10 03:08:10;;;;;;;7.05;3.42;;;-0.30;99.90;;;;;;5037714;28;20320;-81
2022/04/10 03:10:35;;;;;;;7.10;4.25;;;-0.40;99.90;;;;;;5044593;28;20029;-84
2022/04/10 03:13:01;;;;;;;5.53;3.15;;;-0.30;99.90;;;;;;5032994;28;20041;-86
2022/04/10 03:15:27;;;;;;;5.45;2.85;;;-0.40;99.90;;;;;;5025413;28;20041;-82
2022/04/10 03:17:52;;;;;;;6.03;3.70;;;-0.40;99.90;;;;;;5017805;28;20042;-83
2022/04/10 03:20:18;;;;;;;4.40;2.53;;;-0.40;99.90;;;;;;5033297;28;20105;-83
2022/04/10 03:22:44;;;;;;;6.28;3.78;;;-0.50;99.90;;;;;;5031042;28;20080;-83
2022/04/10 03:25:10;;;;;;;5.55;3.25;;;-0.60;99.90;;;;;;5030795;28;20416;-83
2022/04/10 03:27:36;;;;;;;6.95;3.40;;;-0.50;99.90;;;;;;5032434;28;20510;-83
2022/04/10 03:30:03;;;;;;;5.80;3.50;;;-0.50;99.90;;;;;;5043099;28;20037;-84
2022/04/10 03:32:28;;;;;;;6.22;3.22;;;-0.40;99.90;;;;;;5031411;28;20504;-84
2022/04/10 03:34:54;;;;;;;6.70;2.83;;;-0.50;99.90;;;;;;5027160;28;20091;-83
2022/04/10 03:37:20;;;;;;;5.78;2.83;;;-0.50;99.90;;;;;;5038101;28;20040;-84
2022/04/10 03:39:45;;;;;;;5.57;3.28;;;-0.60;99.90;;;;;;5026885;28;20041;-84
2022/04/10 03:42:11;;;;;;;7.20;2.95;;;-0.60;99.90;;;;;;5027293;28;20576;-83
2022/04/10 03:44:36;;;;;;;7.18;3.28;;;-0.60;99.90;;;;;;5030059;28;20047;-84
2022/04/10 03:47:04;;;;;;;6.15;2.67;;;-0.60;99.90;;;;;;5034351;28;20117;-83
2022/04/10 03:49:29;;;;;;;6.97;3.17;;;-0.50;99.90;;;;;;5045580;28;20029;-86
2022/04/10 03:51:55;;;;;;;6.75;3.28;;;-0.60;99.90;;;;;;5032126;28;20030;-83
2022/04/10 03:54:20;;;;;;;10.13;3.50;;;-0.60;99.90;;;;;;5037953;28;20038;-86
2022/04/10 03:56:46;;;;;;;5.43;3.13;;;-0.50;99.90;;;;;;5039969;28;20527;-83
2022/04/10 03:59:12;;;;;;;4.68;3.50;;;-0.50;99.90;;;;;;5033234;28;20558;-82
2022/04/10 04:01:37;;;;;;;7.45;3.53;;;-0.50;99.90;;;;;;5016620;28;20044;-84
2022/04/10 04:04:04;;;;;;;6.43;2.90;;;-0.50;99.90;;;;;;5025710;28;20068;-82
2022/04/10 04:06:29;;;;;;;5.28;2.90;;;-0.50;99.90;;;;;;5030240;28;20757;-84
2022/04/10 04:08:55;;;;;;;5.72;3.33;;;-0.50;99.90;;;;;;5031535;28;20037;-83
2022/04/10 04:11:20;;;;;;;5.95;3.10;;;-0.50;99.90;;;;;;5034962;28;20060;-84
2022/04/10 04:13:46;;;;;;;11.38;3.60;;;-0.50;99.90;;;;;;5032265;28;20036;-84
2022/04/10 04:16:12;;;;;;;6.03;3.35;;;-0.50;99.90;;;;;;5037360;28;20044;-84
2022/04/10 04:18:38;;;;;;;10.95;4.22;;;-0.40;99.90;;;;;;5030448;28;20040;-83
2022/04/10 04:21:04;;;;;;;10.35;4.07;;;-0.40;99.90;;;;;;5032276;28;20029;-84
2022/04/10 04:23:30;;;;;;;8.13;3.25;;;-0.40;99.90;;;;;;5023771;28;20405;-83
2022/04/10 04:25:55;;;;;;;5.53;3.03;;;-0.30;99.90;;;;;;5030985;28;20511;-83
2022/04/10 04:28:21;;;;;;;5.60;2.85;;;-0.30;99.90;;;;;;5045706;28;20063;-84
2022/04/10 04:30:47;;;;;;;6.18;3.08;;;-0.30;99.90;;;;;;5034986;28;20516;-83
2022/04/10 04:33:13;;;;;;;7.80;3.40;;;-0.20;99.90;;;;;;5025287;28;20032;-83
2022/04/10 04:35:38;;;;;;;6.68;3.38;;;-0.20;99.90;;;;;;5029716;28;20041;-84
2022/04/10 04:38:04;;;;;;;6.50;3.38;;;-0.20;99.90;;;;;;5034315;28;20404;-84
2022/04/10 04:40:30;;;;;;;8.00;3.58;;;0.00;99.90;;;;;;5030482;28;20082;-85
2022/04/10 04:42:55;;;;;;;7.35;3.67;;;0.10;99.90;;;;;;5027797;28;20444;-84
2022/04/10 04:45:22;;;;;;;5.30;3.40;;;0.20;99.90;;;;;;5043635;28;20484;-85
2022/04/10 04:47:48;;;;;;;5.28;3.10;;;0.20;99.90;;;;;;5039752;28;20032;-84
2022/04/10 04:50:14;;;;;;;7.25;3.75;;;0.30;99.90;;;;;;5041363;28;20028;-85
2022/04/10 04:52:40;;;;;;;7.05;3.33;;;0.30;99.90;;;;;;5036320;28;20029;-84
2022/04/10 04:55:06;;;;;;;7.57;3.58;;;0.30;99.90;;;;;;5037969;28;20112;-83
2022/04/10 04:57:32;;;;;;;5.45;3.03;;;0.30;99.90;;;;;;5031707;28;20038;-84
2022/04/10 04:59:57;;;;;;;6.72;2.90;;;0.30;99.90;;;;;;5032458;28;20534;-84
2022/04/10 05:02:23;;;;;;;7.25;3.20;;;0.20;99.90;;;;;;5026775;28;20128;-84
2022/04/10 05:04:51;;;;;;;6.35;2.92;;;0.30;99.90;;;;;;5038656;28;20038;-84
2022/04/10 05:07:16;;;;;;;5.45;3.17;;;0.20;99.90;;;;;;5036627;28;20083;-82
2022/04/10 05:09:42;;;;;;;5.95;3.08;;;0.10;99.90;;;;;;5022100;28;20033;-84
2022/04/10 05:12:09;;;;;;;5.82;2.90;;;0.00;99.90;;;;;;5035788;28;20026;-82
2022/04/10 05:14:34;;;;;;;6.70;3.40;;;0.00;99.90;;;;;;5034030;28;20057;-83
2022/04/10 05:17:00;;;;;;;5.45;3.30;;;0.00;99.90;;;;;;5030749;28;20498;-82
2022/04/10 05:19:25;;;;;;;6.00;3.30;;;0.00;99.90;;;;;;5014774;28;20038;-83
2022/04/10 05:21:51;;;;;;;6.43;2.92;;;0.00;99.90;;;;;;5015455;28;20044;-83
2022/04/10 05:24:17;;;;;;;6.80;2.70;;;0.00;99.90;;;;;;5046704;28;20237;-84
2022/04/10 05:26:42;;;;;;;7.13;2.72;;;0.10;99.90;;;;;;5036446;28;20040;-83
2022/04/10 05:29:08;;;;;;;7.10;3.13;;;0.20;99.90;;;;;;5039193;28;20037;-84
2022/04/10 05:31:34;;;;;;;5.90;3.22;;;0.20;99.90;;;;;;5037451;28;20038;-84
2022/04/10 05:33:59;;;;;;;7.65;3.28;;;0.30;99.90;;;;;;5034780;28;20036;-85
2022/04/10 05:36:25;;;;;;;7.20;3.50;;;0.40;99.90;;;;;;5031755;28;20124;-86
2022/04/10 05:38:51;;;;;;;5.97;3.33;;;0.50;99.90;;;;;;5028921;28;20033;-83
2022/04/10 05:41:16;;;;;;;4.60;2.97;;;0.40;99.90;;;;;;5032818;28;20068;-84
2022/04/10 05:43:42;;;;;;;7.20;4.03;;;0.40;99.90;;;;;;5037789;28;20504;-84
2022/04/10 05:46:08;;;;;;;5.72;3.42;;;0.40;99.90;;;;;;5023160;28;20505;-84
2022/04/10 05:48:33;;;;;;;7.65;3.55;;;0.50;99.90;;;;;;5031416;28;20515;-84
2022/04/10 05:50:59;;;;;;;7.22;4.10;;;0.60;99.90;;;;;;5035159;28;20028;-83
2022/04/10 05:53:24;;;;;;;8.20;3.13;;;0.70;99.90;;;;;;5035483;28;20033;-82
2022/04/10 05:55:50;;;;;;;9.40;3.35;;;0.80;99.90;;;;;;5029567;28;20125;-81
2022/04/10 05:58:16;;;;;;;5.30;2.92;;;0.80;99.90;;;;;;5027030;28;20112;-81
2022/04/10 06:00:41;;;;;;;5.78;2.95;;;0.90;99.90;;;;;;5032636;28;20056;-82
2022/04/10 06:03:07;;;;;;;5.03;3.22;;;1.00;99.90;;;;;;5011881;28;20404;-82
2022/04/10 06:05:33;;;;;;;8.32;4.32;;;1.10;99.90;;;;;;5028788;28;20374;-82
2022/04/10 06:07:58;;;;;;;6.97;3.70;;;1.20;99.90;;;;;;5037189;28;20033;-81
2022/04/10 06:10:24;;;;;;;6.82;3.88;;;1.20;99.90;;;;;;5033918;28;20496;-84
2022/04/10 06:12:49;;;;;;;6.40;3.25;;;1.30;99.90;;;;;;5028359;28;20542;-85
2022/04/10 06:15:19;;;;;;;9.70;3.22;;;1.30;99.90;;;;;;5034712;28;20041;-79
2022/04/10 06:17:45;;;;;;;10.05;4.00;;;1.40;99.90;;;;;;5048045;28;20067;-81
2022/04/10 06:20:11;;;;;;;5.10;2.95;;;1.60;99.90;;;;;;5050649;28;20118;-83
2022/04/10 06:22:36;;;;;;;7.30;3.80;;;1.70;99.90;;;;;;5047428;28;20037;-84
2022/04/10 06:25:03;;;;;;;9.02;4.00;;;1.80;99.90;;;;;;5039650;28;20044;-84
2022/04/10 06:27:28;;;;;;;6.50;3.10;;;1.90;99.90;;;;;;5039125;28;20660;-83
2022/04/10 06:29:54;;;;;;;10.23;3.92;;;1.90;99.90;;;;;;5021695;28;20585;-82
2022/04/10 06:32:19;;;;;;;6.22;3.28;;;2.00;99.90;;;;;;5029085;28;20065;-83
2022/04/10 06:34:45;;;;;;;6.35;3.60;;;2.10;99.90;;;;;;5032441;28;20060;-85
2022/04/10 06:37:12;;;;;;;7.28;3.88;;;2.20;99.90;;;;;;5034263;28;20037;-83
2022/04/10 06:39:38;;;;;;;6.43;3.40;;;2.30;99.90;;;;;;5022970;28;20032;-83
2022/04/10 06:42:08;;;;;;;7.45;3.50;;;2.40;99.90;;;;;;5048049;28;20438;-83
2022/04/10 06:44:34;;;;;;;8.50;4.00;;;2.50;99.90;;;;;;5038108;28;20115;-83
2022/04/10 06:47:00;;;;;;;6.38;3.78;;;2.60;99.90;;;;;;5038268;28;20037;-81
2022/04/10 06:49:26;;;;;;;8.02;3.97;;;2.70;99.90;;;;;;5031262;28;20037;-82
2022/04/10 06:51:51;;;;;;;9.48;3.70;;;2.70;99.90;;;;;;5029710;28;20033;-83
2022/04/10 06:54:20;;;;;;;5.68;3.65;;;2.80;99.90;;;;;;5033445;28;20323;-82
2022/04/10 06:56:46;;;;;;;16.42;5.35;;;2.90;99.90;;;;;;5038715;28;20024;-81
2022/04/10 06:59:12;;;;;;;7.10;4.28;;;2.90;99.90;;;;;;5037644;28;20053;-84
2022/04/10 07:01:38;;;;;;;5.63;3.65;;;2.90;99.90;;;;;;5039063;28;20049;-82
2022/04/10 07:04:05;;;;;;;6.75;3.70;;;3.00;99.90;;;;;;5039313;28;20029;-82
2022/04/10 07:06:30;;;;;;;5.47;3.65;;;3.10;99.90;;;;;;5032434;28;20042;-81
2022/04/10 07:08:57;;;;;;;3.53;2.38;;;3.20;99.90;;;;;;5038944;28;20708;-82
2022/04/10 07:11:23;;;;;;;5.95;4.18;;;3.10;99.90;;;;;;5027861;28;20029;-82
2022/04/10 07:13:49;;;;;;;6.78;4.35;;;3.20;99.90;;;;;;5038048;28;20025;-82
2022/04/10 07:16:14;;;;;;;9.52;3.55;;;3.40;99.90;;;;;;5030696;28;20037;-82
2022/04/10 07:18:40;;;;;;;6.38;3.05;;;3.30;99.90;;;;;;5037343;28;20496;-82
2022/04/10 07:21:06;;;;;;;6.45;2.58;;;3.20;99.90;;;;;;5042284;28;20033;-81
2022/04/10 07:23:42;;;;;;;4.43;3.00;;;3.30;99.90;;;;;;5042634;28;20511;-85
2022/04/10 07:26:10;;;;;;;6.10;3.72;;;3.50;99.90;;;;;;5035064;28;20744;-82
2022/04/10 07:28:37;;;;;;;7.15;4.78;;;3.40;98.80;;;;;;5033093;28;20037;-81
2022/04/10 07:31:05;;;;;;;7.60;3.88;;;3.70;99.70;;;;;;5034407;28;20033;-81
2022/04/10 07:33:30;;;;;;;5.53;2.83;;;3.70;99.30;;;;;;5029007;28;20183;-84
2022/04/10 07:35:56;;;;;;;6.38;3.80;;;3.90;96.90;;;;;;5025093;28;20532;-83
2022/04/10 07:38:22;;;;;;;5.22;3.58;;;3.90;96.10;;;;;;5037205;28;20036;-85
2022/04/10 07:40:48;;;;;;;5.55;3.58;;;4.00;98.00;;;;;;5028288;28;20017;-83
2022/04/10 07:43:14;;;;;;;7.43;3.60;;;3.80;96.10;;;;;;5035163;28;20043;-84
2022/04/10 07:48:23;;;;;;;4.40;2.95;;;4.20;95.60;;;;;;5029813;28;20048;-83
2022/04/10 07:50:49;;;;;;;7.13;4.10;;;4.20;92.90;;;;;;5033245;28;20025;-83
2022/04/10 07:53:15;;;;;;;5.10;3.10;;;4.20;93.40;;;;;;5032014;28;20060;-81
2022/04/10 07:55:40;;;;;;;6.93;3.30;;;4.40;90.60;;;;;;5039082;28;20029;-81
2022/04/10 07:58:06;;;;;;;4.43;3.13;;;4.60;93.40;;;;;;5030958;28;20033;-82
2022/04/10 08:00:32;;;;;;;6.30;3.47;;;4.80;90.90;;;;;;5027876;28;20496;-81
2022/04/10 08:02:59;;;;;;;5.80;2.90;;;4.80;90.30;;;;;;5019912;28;20045;-82
2022/04/10 08:05:25;;;;;;;5.50;3.28;;;4.90;91.70;;;;;;5038127;28;20083;-81
2022/04/10 08:07:50;;;;;;;5.35;3.25;;;4.60;88.50;;;;;;5036879;28;20065;-81
2022/04/10 08:10:16;;;;;;;6.10;3.72;;;5.00;86.60;;;;;;5034865;28;20021;-81
2022/04/10 08:12:43;;;;;;;5.15;3.13;;;5.20;85.30;;;;;;5031907;28;20034;-80
2022/04/10 08:15:10;;;;;;;6.72;3.80;;;5.60;83.60;;;;;;5036074;28;20027;-80
2022/04/10 08:17:36;;;;;;;4.88;3.17;;;6.00;83.30;;;;;;5037091;28;20120;-79
2022/04/10 08:20:04;;;;;;;4.20;3.25;;;6.30;80.30;;;;;;5036628;28;20116;-79
2022/04/10 08:22:31;;;;;;;8.07;3.03;;;6.70;78.10;;;;;;5031545;28;20034;-79
2022/04/10 08:25:02;;;;;;;5.97;3.40;;;7.10;73.00;;;;;;5034221;28;20864;-78
2022/04/10 08:27:28;;;;;;;;;;;7.60;76.10;;;;;;5033228;28;20037;-78
2022/04/10 08:29:54;;;;;;;6.78;4.30;;;7.50;71.10;;;;;;5033250;28;20377;-81
2022/04/10 08:32:19;;;;;;;4.85;3.10;;;7.00;69.20;;;;;;5026114;28;20045;-80
2022/04/10 08:34:45;;;;;;;5.40;3.33;;;6.80;77.40;;;;;;5035141;28;20540;-79
2022/04/10 08:37:10;;;;;;;4.95;3.40;;;6.50;72.70;;;;;;5045638;28;20439;-79
2022/04/10 08:39:36;;;;;;;5.32;3.20;;;6.70;74.80;;;;;;5031580;28;20385;-80
2022/04/10 08:42:05;;;;;;;5.70;3.17;;;6.60;76.30;;;;;;5039066;28;20543;-83
2022/04/10 08:44:31;;;;;;;5.47;3.40;;;6.90;73.30;;;;;;5034465;28;20034;-79
2022/04/10 08:46:58;;;;;;;8.27;3.75;;;7.00;70.80;;;;;;5037166;28;20025;-79
2022/04/10 08:49:31;;;;;;;4.10;3.03;;;6.90;73.30;;;;;;5027817;28;20033;-79
2022/04/10 08:51:58;;;;;;;5.55;2.70;;;6.70;77.50;;;;;;5024302;28;20056;-79
2022/04/10 08:54:26;;;;;;;5.05;3.00;;;6.80;72.30;;;;;;5026181;28;20025;-79
2022/04/10 08:56:51;;;;;;;5.43;2.95;;;6.60;63.10;;;;;;5030843;28;20055;-80
2022/04/10 08:59:18;;;;;;;4.03;2.75;;;6.60;69.50;;;;;;5015883;28;20528;-79
2022/04/10 09:01:44;;;;;;;5.15;3.28;;;7.10;65.10;;;;;;5035290;28;20059;-78
2022/04/10 09:04:10;;;;;;;6.15;3.53;;;7.30;68.30;;;;;;5026374;28;20556;-81
2022/04/10 09:06:43;;;;;;;3.53;2.80;;;7.30;69.00;;;;;;5009865;28;20033;-78
2022/04/10 09:09:13;;;;;;;3.78;2.90;;;7.10;66.70;;;;;;5015931;28;20034;-77
2022/04/10 09:11:42;;;;;;;3.65;2.20;;;7.40;63.00;;;;;;5030198;28;20083;-77
2022/04/10 09:14:07;;;;;;;4.43;2.83;;;7.30;62.60;;;;;;5025139;28;20519;-78
2022/04/10 09:16:33;;;;;;;6.75;3.38;;;6.80;62.40;;;;;;5035697;28;20017;-77
2022/04/10 09:19:09;;;;;;;3.72;2.35;;;7.10;63.90;;;;;;5029660;28;20033;-76
2022/04/10 09:21:36;;;;;;;5.90;3.35;;;8.10;63.40;;;;;;5035049;28;20063;-77
2022/04/10 09:24:08;;;;;;;4.25;2.90;;;8.20;60.10;;;;;;5037400;28;20116;-77
2022/04/10 09:26:51;;;;;;;4.57;2.50;;;8.50;56.90;;;;;;5033431;28;20021;-78
2022/04/10 09:29:23;;;;;;;2.38;1.80;;;8.30;56.10;;;;;;5032352;28;20060;-76
2022/04/10 09:31:50;;;;;;;6.03;2.70;;;8.40;55.70;;;;;;5031103;28;20033;-80
2022/04/10 09:34:18;;;;;;;4.65;2.67;;;8.10;59.30;;;;;;5020754;28;20041;-77
2022/04/10 09:36:45;;;;;;;7.57;3.35;;;8.00;55.60;;;;;;5019769;28;20021;-77
2022/04/10 09:39:31;;;;;;;4.60;2.60;;;7.60;62.60;;;;;;5041140;28;20029;-77
2022/04/10 09:42:10;;;;;;;4.57;2.55;;;7.60;57.30;;;;;;5044749;28;20287;-77
2022/04/10 09:44:40;;;;;;;3.63;2.60;;;7.90;59.40;;;;;;5028187;28;20022;-77
2022/04/10 09:47:10;;;;;;;5.93;3.08;;;8.10;59.00;;;;;;5022492;28;20025;-77
2022/04/10 09:49:38;;;;;;;4.57;2.80;;;7.60;59.60;;;;;;5025385;28;20069;-79
2022/04/10 09:52:11;;;;;;;5.47;3.47;;;7.60;59.90;;;;;;5020964;28;20112;-77
2022/04/10 09:54:46;;;;;;;4.93;2.70;;;7.60;58.40;;;;;;5018558;28;20036;-79
2022/04/10 09:57:17;;;;;;;5.43;2.90;;;7.90;58.90;;;;;;5033506;28;20024;-78
2022/04/10 09:59:47;;;;;;;4.50;2.85;;;8.60;54.00;;;;;;5006604;28;20042;-81
2022/04/10 10:02:15;;;;;;;4.55;2.90;;;9.30;60.40;;;;;;5027939;28;20026;-79
2022/04/10 10:04:42;;;;;;;3.72;2.30;;;9.20;52.70;;;;;;5021132;28;20036;-79
2022/04/10 10:07:15;;;;;;;4.40;3.08;;;8.50;53.50;;;;;;5021355;28;20021;-79
2022/04/10 10:09:42;;;;;;;4.85;2.95;;;7.90;58.60;;;;;;5024756;28;20727;-79
2022/04/10 10:12:09;;;;;;;4.53;2.92;;;7.60;57.80;;;;;;5032891;28;20077;-80
2022/04/10 10:14:36;;;;;;;4.53;2.92;;;7.40;59.30;;;;;;5041618;28;20556;-81
2022/04/10 10:17:05;;;;;;;4.30;2.75;;;7.20;63.60;;;;;;5037212;28;20038;-81
2022/04/10 10:19:35;;;;;;;4.40;2.67;;;7.00;60.10;;;;;;5034208;28;20509;-83
2022/04/10 10:22:06;;;;;;;7.22;3.08;;;6.90;60.20;;;;;;5027252;28;20073;-81
2022/04/10 10:24:55;;;;;;;4.13;2.65;;;7.00;61.80;;;;;;5031745;28;20037;-80
2022/04/10 10:27:45;;;;;;;7.80;2.83;;;7.20;62.60;;;;;;5031176;28;20025;-80
2022/04/10 10:30:23;;;;;;;5.88;3.15;;;7.30;60.00;;;;;;5027877;28;20082;-80
2022/04/10 10:32:56;;;;;;;4.43;2.70;;;7.60;61.70;;;;;;5035287;28;20086;-80
2022/04/10 10:35:38;;;;;;;7.47;2.88;;;7.60;59.80;;;;;;5032106;28;20091;-79
2022/04/10 10:38:21;;;;;;;3.60;2.35;;;7.60;59.60;;;;;;5035048;28;20057;-80
2022/04/10 10:40:52;;;;;;;6.65;3.20;;;7.70;59.90;;;;;;5032002;28;20025;-79
2022/04/10 10:43:27;;;;;;;4.38;2.70;;;7.90;62.60;;;;;;5033066;28;20246;-79
2022/04/10 10:45:53;;;;;;;5.22;3.28;;;7.80;58.90;;;;;;5027347;28;20064;-80
2022/04/10 10:48:33;;;;;;;5.75;3.10;;;8.80;58.50;;;;;;5037432;28;20117;-79
2022/04/10 10:51:11;;;;;;;4.97;2.88;;;9.80;57.40;;;;;;5028421;28;20069;-78
2022/04/10 10:53:47;;;;;;;3.30;2.92;;;9.40;57.40;;;;;;5033091;28;20021;-82
2022/04/10 10:56:41;;;;;;;6.57;2.47;;;8.70;56.50;;;;;;5036365;28;20025;-79
2022/04/10 10:59:29;;;;;;;4.68;2.75;;;8.60;58.40;;;;;;5025577;28;20048;-83
2022/04/10 11:01:56;;;;;;;5.65;3.03;;;8.50;58.20;;;;;;5031860;28;20500;-78
2022/04/10 11:04:25;;;;;;;3.88;2.58;;;8.20;56.70;;;;;;5022454;28;20084;-77
2022/04/10 11:06:50;;;;;;;4.40;2.50;;;8.30;56.90;;;;;;5034105;28;20029;-79
2022/04/10 11:09:32;;;;;;;3.17;2.70;;;8.40;56.70;;;;;;5042706;28;20064;-79
2022/04/10 11:11:59;;;;;;;3.83;2.63;;;8.70;58.80;;;;;;5054134;28;20051;-78
2022/04/10 11:14:41;;;;;;;4.45;2.90;;;8.50;57.10;;;;;;5025227;28;20403;-79
2022/04/10 11:17:21;;;;;;;4.13;2.90;;;8.50;58.70;;;;;;5036569;28;20025;-79
2022/04/10 11:19:56;;;;;;;3.17;2.15;;;8.40;56.40;;;;;;5037029;28;20472;-80
2022/04/10 11:22:25;;;;;;;4.38;2.90;;;8.60;55.80;;;;;;5032345;28;20143;-80
2022/04/10 11:24:52;;;;;;;3.50;2.55;;;8.60;56.50;;;;;;5031292;28;20109;-80
2022/04/10 11:27:42;;;;;;;4.13;2.83;;;8.40;58.50;;;;;;5019135;28;20063;-80
2022/04/10 11:30:09;;;;;;;6.07;3.17;;;8.50;60.10;;;;;;5027289;28;20041;-79
2022/04/10 11:32:48;;;;;;;3.55;2.78;;;8.60;56.20;;;;;;5042385;28;20056;-79
2022/04/10 11:35:16;;;;;;;4.53;3.30;;;8.90;54.90;;;;;;5038848;28;20155;-87
2022/04/10 11:37:46;;;;;;;3.78;3.10;;;9.30;56.30;;;;;;5038842;28;20535;-82
2022/04/10 11:40:12;;;;;;;4.87;3.10;;;9.40;54.10;;;;;;5031547;28;20033;-79
2022/04/10 11:42:38;;;;;;;6.63;3.00;;;9.30;58.20;;;;;;5033740;28;20397;-79
2022/04/10 11:45:04;;;;;;;5.70;3.20;;;9.00;57.90;;;;;;5030846;28;20519;-79
2022/04/10 11:47:35;;;;;;;5.05;3.30;;;9.00;57.40;;;;;;5046551;28;20190;-79
2022/04/10 11:50:00;;;;;;;;;;;8.40;55.20;;;;;;5041520;28;20025;-84
2022/04/10 11:52:26;;;;;;;3.67;2.55;;;7.80;57.70;;;;;;5040970;28;19952;-80
2022/04/10 11:54:52;;;;;;;7.97;3.65;;;7.40;60.20;;;;;;5034650;28;20030;-79
2022/04/10 11:57:19;;;;;;;4.22;2.55;;;7.50;62.40;;;;;;5039213;28;20036;-78
2022/04/10 11:59:44;;;;;;;4.38;3.10;;;7.20;61.50;;;;;;5034755;28;20125;-81
2022/04/10 12:02:12;;;;;;;4.70;3.00;;;7.20;62.60;;;;;;5030011;28;20041;-80
2022/04/10 12:04:38;;;;;;;5.32;3.05;;;7.30;62.80;;;;;;5028888;28;20030;-81
2022/04/10 12:07:21;;;;;;;6.57;2.50;;;7.30;62.60;;;;;;5041122;28;20021;-80
2022/04/10 12:09:48;;;;;;;4.50;2.80;;;7.40;61.40;;;;;;5038656;28;20025;-85
2022/04/10 12:12:15;;;;;;;3.83;2.50;;;7.20;61.40;;;;;;5036008;28;20026;-77
2022/04/10 12:14:41;;;;;;;5.32;3.03;;;7.20;61.20;;;;;;5037517;28;20386;-86
2022/04/10 12:17:11;;;;;;;4.40;2.88;;;7.20;61.30;;;;;;5035667;28;20701;-84
2022/04/10 12:19:37;;;;;;;3.55;2.28;;;7.30;60.00;;;;;;5046999;28;20037;-87
2022/04/10 12:22:07;;;;;;;4.97;2.60;;;7.60;61.10;;;;;;5029449;28;20397;-83
2022/04/10 12:24:34;;;;;;;4.82;2.40;;;8.00;59.20;;;;;;5014589;28;20500;-84
2022/04/10 12:27:04;;;;;;;3.70;2.63;;;7.80;58.90;;;;;;5035506;28;20060;-82
2022/04/10 12:29:30;;;;;;;4.55;2.70;;;7.80;58.10;;;;;;5029506;28;20505;-85
2022/04/10 12:31:58;;;;;;;4.05;2.67;;;7.70;59.40;;;;;;5031279;28;20492;-81
2022/04/10 12:34:23;;;;;;;6.22;3.13;;;7.90;60.60;;;;;;5031331;28;20107;-82
2022/04/10 12:36:51;;;;;;;6.28;2.60;;;7.60;63.70;;;;;;5039554;28;20152;-83
2022/04/10 12:39:28;;;;;;;5.85;2.83;;;7.20;61.00;;;;;;5033550;28;20507;-81
2022/04/10 12:42:19;;;;;;;2.67;1.98;;;7.30;61.70;;;;;;5025550;28;20041;-82
2022/04/10 12:44:57;;;;;;;1.88;1.58;;;7.20;60.50;;;;;;5042352;28;20033;-83
2022/04/10 12:47:46;;;;;;;4.35;2.03;;;7.10;58.70;;;;;;5038498;28;20115;-84
2022/04/10 12:50:19;;;;;;;3.75;2.65;;;7.30;59.20;;;;;;5035900;28;20098;-83
2022/04/10 12:52:46;;;;;;;3.80;2.10;;;7.40;59.60;;;;;;5036883;28;20034;-82
2022/04/10 12:55:31;;;;;;;3.25;1.63;;;7.50;59.20;;;;;;5034276;28;20025;-82
2022/04/10 12:57:59;;;;;;;4.05;2.20;;;7.80;58.90;;;;;;5030098;28;20053;-82
2022/04/10 13:00:27;;;;;;;2.75;1.80;;;7.70;57.10;;;;;;5026723;28;20076;-83